sensor_id;sensor_type;location;lat;lon;timestamp;P1;durP1;ratioP1;P2;durP2;ratioP2
75207;SDS011;63795;55.684;37.864;2022-10-01T00:02:35;33.78;;;18.15;;
75207;SDS011;63795;55.684;37.864;2022-10-01T00:07:37;32.30;;;19.77;;
75207;SDS011;63795;55.684;37.864;2022-10-01T00:12:41;34.33;;;21.52;;
75207;SDS011;63795;55.684;37.864;2022-10-01T00:17:45;37.03;;;22.98;;
75207;SDS011;63795;55.684;37.864;2022-10-01T00:22:46;34.22;;;21.17;;
75207;SDS011;63795;55.684;37.864;2022-10-01T00:27:46;35.55;;;18.35;;
75207;SDS011;63795;55.684;37.864;2022-10-01T00:32:47;33.55;;;19.80;;
75207;SDS011;63795;55.684;37.864;2022-10-01T00:37:48;37.63;;;21.13;;
75207;SDS011;63795;55.684;37.864;2022-10-01T00:42:52;38.88;;;19.85;;
75207;SDS011;63795;55.684;37.864;2022-10-01T00:47:53;48.92;;;21.48;;
75207;SDS011;63795;55.684;37.864;2022-10-01T00:52:58;47.03;;;24.55;;
75207;SDS011;63795;55.684;37.864;2022-10-01T00:58:02;44.50;;;23.42;;
75207;SDS011;63795;55.684;37.864;2022-10-01T01:03:04;48.35;;;23.90;;
75207;SDS011;63795;55.684;37.864;2022-10-01T01:08:05;45.70;;;25.30;;
75207;SDS011;63795;55.684;37.864;2022-10-01T01:13:13;51.05;;;25.08;;
75207;SDS011;63795;55.684;37.864;2022-10-01T01:18:34;39.65;;;21.33;;
75207;SDS011;63795;55.684;37.864;2022-10-01T01:29:15;42.13;;;24.88;;
75207;SDS011;63795;55.684;37.864;2022-10-01T01:34:32;46.42;;;25.23;;
75207;SDS011;63795;55.684;37.864;2022-10-01T01:39:35;41.13;;;24.15;;
75207;SDS011;63795;55.684;37.864;2022-10-01T01:44:37;40.53;;;23.48;;
75207;SDS011;63795;55.684;37.864;2022-10-01T01:49:40;42.60;;;25.95;;
75207;SDS011;63795;55.684;37.864;2022-10-01T01:54:45;51.85;;;26.08;;
75207;SDS011;63795;55.684;37.864;2022-10-01T01:59:48;47.97;;;23.70;;
75207;SDS011;63795;55.684;37.864;2022-10-01T02:04:54;49.45;;;26.77;;
75207;SDS011;63795;55.684;37.864;2022-10-01T02:25:38;58.97;;;27.33;;
75207;SDS011;63795;55.684;37.864;2022-10-01T02:30:42;58.75;;;27.50;;
75207;SDS011;63795;55.684;37.864;2022-10-01T02:40:46;62.78;;;28.98;;
75207;SDS011;63795;55.684;37.864;2022-10-01T02:45:50;66.22;;;32.00;;
75207;SDS011;63795;55.684;37.864;2022-10-01T02:51:00;65.18;;;23.60;;
75207;SDS011;63795;55.684;37.864;2022-10-01T02:56:23;67.88;;;28.55;;
75207;SDS011;63795;55.684;37.864;2022-10-01T03:01:44;65.32;;;29.63;;
75207;SDS011;63795;55.684;37.864;2022-10-01T03:06:45;73.50;;;30.05;;
75207;SDS011;63795;55.684;37.864;2022-10-01T03:11:46;69.95;;;31.85;;
75207;SDS011;63795;55.684;37.864;2022-10-01T03:16:46;75.05;;;32.20;;
75207;SDS011;63795;55.684;37.864;2022-10-01T03:21:47;73.22;;;28.75;;
75207;SDS011;63795;55.684;37.864;2022-10-01T03:26:48;70.40;;;31.40;;
75207;SDS011;63795;55.684;37.864;2022-10-01T03:31:49;61.33;;;27.90;;
75207;SDS011;63795;55.684;37.864;2022-10-01T03:36:50;62.00;;;28.23;;
75207;SDS011;63795;55.684;37.864;2022-10-01T03:41:51;58.67;;;27.95;;
75207;SDS011;63795;55.684;37.864;2022-10-01T03:46:52;64.72;;;28.25;;
75207;SDS011;63795;55.684;37.864;2022-10-01T03:51:53;64.68;;;28.00;;
75207;SDS011;63795;55.684;37.864;2022-10-01T03:56:54;65.28;;;29.65;;
75207;SDS011;63795;55.684;37.864;2022-10-01T04:01:55;68.60;;;30.27;;
75207;SDS011;63795;55.684;37.864;2022-10-01T04:06:55;76.90;;;31.70;;
75207;SDS011;63795;55.684;37.864;2022-10-01T04:11:56;81.82;;;30.95;;
75207;SDS011;63795;55.684;37.864;2022-10-01T04:16:57;94.53;;;32.67;;
75207;SDS011;63795;55.684;37.864;2022-10-01T04:21:58;106.85;;;34.60;;
75207;SDS011;63795;55.684;37.864;2022-10-01T04:26:58;102.65;;;34.85;;
75207;SDS011;63795;55.684;37.864;2022-10-01T04:31:59;132.38;;;37.30;;
75207;SDS011;63795;55.684;37.864;2022-10-01T04:37:02;95.43;;;34.60;;
75207;SDS011;63795;55.684;37.864;2022-10-01T04:42:03;80.63;;;31.90;;
75207;SDS011;63795;55.684;37.864;2022-10-01T04:47:03;88.07;;;29.88;;
75207;SDS011;63795;55.684;37.864;2022-10-01T04:52:04;74.32;;;32.83;;
75207;SDS011;63795;55.684;37.864;2022-10-01T04:57:05;110.05;;;32.00;;
75207;SDS011;63795;55.684;37.864;2022-10-01T05:02:06;93.57;;;31.73;;
75207;SDS011;63795;55.684;37.864;2022-10-01T05:07:06;136.27;;;33.13;;
75207;SDS011;63795;55.684;37.864;2022-10-01T05:12:07;139.05;;;39.53;;
75207;SDS011;63795;55.684;37.864;2022-10-01T05:17:07;127.60;;;34.63;;
75207;SDS011;63795;55.684;37.864;2022-10-01T05:22:08;116.97;;;34.15;;
75207;SDS011;63795;55.684;37.864;2022-10-01T05:27:09;92.32;;;31.33;;
75207;SDS011;63795;55.684;37.864;2022-10-01T05:32:11;83.47;;;30.08;;
75207;SDS011;63795;55.684;37.864;2022-10-01T05:37:11;94.95;;;32.03;;
75207;SDS011;63795;55.684;37.864;2022-10-01T05:42:12;89.90;;;31.67;;
75207;SDS011;63795;55.684;37.864;2022-10-01T05:47:13;72.20;;;30.63;;
75207;SDS011;63795;55.684;37.864;2022-10-01T05:52:14;83.60;;;34.38;;
75207;SDS011;63795;55.684;37.864;2022-10-01T05:57:15;83.28;;;33.40;;
75207;SDS011;63795;55.684;37.864;2022-10-01T06:02:16;87.30;;;33.60;;
75207;SDS011;63795;55.684;37.864;2022-10-01T06:07:16;77.95;;;33.53;;
75207;SDS011;63795;55.684;37.864;2022-10-01T06:12:17;64.25;;;30.77;;
75207;SDS011;63795;55.684;37.864;2022-10-01T06:17:18;63.35;;;30.75;;
75207;SDS011;63795;55.684;37.864;2022-10-01T06:22:19;65.13;;;28.67;;
75207;SDS011;63795;55.684;37.864;2022-10-01T06:27:19;77.75;;;31.13;;
75207;SDS011;63795;55.684;37.864;2022-10-01T06:32:20;71.03;;;29.10;;
75207;SDS011;63795;55.684;37.864;2022-10-01T06:37:20;78.53;;;31.30;;
75207;SDS011;63795;55.684;37.864;2022-10-01T06:42:21;154.52;;;40.25;;
75207;SDS011;63795;55.684;37.864;2022-10-01T06:47:21;138.32;;;36.50;;
75207;SDS011;63795;55.684;37.864;2022-10-01T06:52:22;124.95;;;35.45;;
75207;SDS011;63795;55.684;37.864;2022-10-01T06:57:46;159.02;;;32.72;;
75207;SDS011;63795;55.684;37.864;2022-10-01T07:02:46;170.52;;;38.47;;
75207;SDS011;63795;55.684;37.864;2022-10-01T07:07:47;142.02;;;37.38;;
75207;SDS011;63795;55.684;37.864;2022-10-01T07:12:48;133.57;;;34.38;;
75207;SDS011;63795;55.684;37.864;2022-10-01T07:17:50;151.80;;;36.33;;
75207;SDS011;63795;55.684;37.864;2022-10-01T07:22:55;140.45;;;42.53;;
75207;SDS011;63795;55.684;37.864;2022-10-01T07:28:00;112.55;;;40.40;;
75207;SDS011;63795;55.684;37.864;2022-10-01T07:33:03;122.70;;;36.13;;
75207;SDS011;63795;55.684;37.864;2022-10-01T07:38:04;96.82;;;34.63;;
75207;SDS011;63795;55.684;37.864;2022-10-01T07:48:07;66.07;;;28.38;;
75207;SDS011;63795;55.684;37.864;2022-10-01T07:53:08;66.05;;;29.80;;
75207;SDS011;63795;55.684;37.864;2022-10-01T07:58:09;70.25;;;31.27;;
75207;SDS011;63795;55.684;37.864;2022-10-01T08:03:10;61.53;;;28.10;;
75207;SDS011;63795;55.684;37.864;2022-10-01T08:08:11;75.70;;;33.13;;
75207;SDS011;63795;55.684;37.864;2022-10-01T08:13:12;59.95;;;28.35;;
75207;SDS011;63795;55.684;37.864;2022-10-01T08:18:15;60.25;;;30.17;;
75207;SDS011;63795;55.684;37.864;2022-10-01T08:23:16;59.58;;;26.70;;
75207;SDS011;63795;55.684;37.864;2022-10-01T08:28:16;58.40;;;32.83;;
75207;SDS011;63795;55.684;37.864;2022-10-01T08:33:17;62.72;;;33.60;;
75207;SDS011;63795;55.684;37.864;2022-10-01T08:38:18;63.03;;;33.72;;
75207;SDS011;63795;55.684;37.864;2022-10-01T08:43:31;53.33;;;29.98;;
75207;SDS011;63795;55.684;37.864;2022-10-01T08:54:18;55.25;;;33.05;;
75207;SDS011;63795;55.684;37.864;2022-10-01T09:04:39;57.50;;;33.22;;
75207;SDS011;63795;55.684;37.864;2022-10-01T09:09:44;54.97;;;32.20;;
75207;SDS011;63795;55.684;37.864;2022-10-01T09:14:56;54.72;;;34.13;;
75207;SDS011;63795;55.684;37.864;2022-10-01T09:20:26;54.72;;;33.85;;
75207;SDS011;63795;55.684;37.864;2022-10-01T09:25:33;51.67;;;32.42;;
75207;SDS011;63795;55.684;37.864;2022-10-01T09:30:38;50.45;;;31.92;;
75207;SDS011;63795;55.684;37.864;2022-10-01T09:35:43;48.55;;;31.30;;
75207;SDS011;63795;55.684;37.864;2022-10-01T09:40:53;54.00;;;33.28;;
75207;SDS011;63795;55.684;37.864;2022-10-01T09:45:55;62.92;;;39.55;;
75207;SDS011;63795;55.684;37.864;2022-10-01T09:50:58;51.90;;;34.05;;
75207;SDS011;63795;55.684;37.864;2022-10-01T09:56:48;48.92;;;33.35;;
75207;SDS011;63795;55.684;37.864;2022-10-01T10:06:44;50.90;;;29.58;;
75207;SDS011;63795;55.684;37.864;2022-10-01T10:11:44;47.50;;;31.98;;
75207;SDS011;63795;55.684;37.864;2022-10-01T10:16:45;42.90;;;26.38;;
75207;SDS011;63795;55.684;37.864;2022-10-01T10:21:51;43.10;;;27.40;;
75207;SDS011;63795;55.684;37.864;2022-10-01T10:32:25;39.60;;;26.23;;
75207;SDS011;63795;55.684;37.864;2022-10-01T10:37:29;40.80;;;26.23;;
75207;SDS011;63795;55.684;37.864;2022-10-01T10:42:33;40.17;;;28.83;;
75207;SDS011;63795;55.684;37.864;2022-10-01T10:47:42;39.63;;;24.45;;
75207;SDS011;63795;55.684;37.864;2022-10-01T10:52:45;38.05;;;24.42;;
75207;SDS011;63795;55.684;37.864;2022-10-01T10:57:46;61.47;;;38.53;;
75207;SDS011;63795;55.684;37.864;2022-10-01T11:02:47;35.67;;;24.25;;
75207;SDS011;63795;55.684;37.864;2022-10-01T11:08:04;35.58;;;21.85;;
75207;SDS011;63795;55.684;37.864;2022-10-01T11:18:39;71.95;;;42.10;;
75207;SDS011;63795;55.684;37.864;2022-10-01T11:23:58;25.67;;;17.70;;
75207;SDS011;63795;55.684;37.864;2022-10-01T11:29:13;26.80;;;17.83;;
75207;SDS011;63795;55.684;37.864;2022-10-01T11:39:57;24.73;;;18.92;;
75207;SDS011;63795;55.684;37.864;2022-10-01T11:45:21;26.27;;;20.30;;
75207;SDS011;63795;55.684;37.864;2022-10-01T11:50:35;25.25;;;17.38;;
75207;SDS011;63795;55.684;37.864;2022-10-01T11:55:59;20.77;;;17.15;;
75207;SDS011;63795;55.684;37.864;2022-10-01T12:12:03;26.17;;;18.58;;
75207;SDS011;63795;55.684;37.864;2022-10-01T12:17:15;30.58;;;22.67;;
75207;SDS011;63795;55.684;37.864;2022-10-01T12:22:26;24.30;;;13.88;;
75207;SDS011;63795;55.684;37.864;2022-10-01T12:38:38;32.40;;;21.67;;
75207;SDS011;63795;55.684;37.864;2022-10-01T12:49:05;31.23;;;21.35;;
75207;SDS011;63795;55.684;37.864;2022-10-01T12:54:28;31.55;;;23.80;;
75207;SDS011;63795;55.684;37.864;2022-10-01T13:10:25;30.65;;;21.88;;
75207;SDS011;63795;55.684;37.864;2022-10-01T13:15:40;37.67;;;26.02;;
75207;SDS011;63795;55.684;37.864;2022-10-01T13:21:02;40.17;;;26.30;;
75207;SDS011;63795;55.684;37.864;2022-10-01T13:31:38;43.83;;;29.42;;
75207;SDS011;63795;55.684;37.864;2022-10-01T13:36:50;29.90;;;22.13;;
75207;SDS011;63795;55.684;37.864;2022-10-01T13:41:52;25.23;;;18.38;;
75207;SDS011;63795;55.684;37.864;2022-10-01T13:47:00;30.85;;;20.33;;
75207;SDS011;63795;55.684;37.864;2022-10-01T13:52:05;32.78;;;21.75;;
75207;SDS011;63795;55.684;37.864;2022-10-01T13:57:06;25.92;;;19.38;;
75207;SDS011;63795;55.684;37.864;2022-10-01T14:02:27;27.15;;;18.35;;
75207;SDS011;63795;55.684;37.864;2022-10-01T14:07:31;29.00;;;18.40;;
75207;SDS011;63795;55.684;37.864;2022-10-01T14:12:37;33.80;;;24.35;;
75207;SDS011;63795;55.684;37.864;2022-10-01T14:18:13;30.08;;;21.40;;
75207;SDS011;63795;55.684;37.864;2022-10-01T14:23:17;31.77;;;19.73;;
75207;SDS011;63795;55.684;37.864;2022-10-01T14:49:28;37.40;;;22.05;;
75207;SDS011;63795;55.684;37.864;2022-10-01T14:54:36;36.38;;;24.80;;
75207;SDS011;63795;55.684;37.864;2022-10-01T14:59:59;39.80;;;25.10;;
75207;SDS011;63795;55.684;37.864;2022-10-01T15:10:20;42.80;;;25.60;;
75207;SDS011;63795;55.684;37.864;2022-10-01T15:15:28;48.88;;;30.83;;
75207;SDS011;63795;55.684;37.864;2022-10-01T15:20:33;47.20;;;30.08;;
75207;SDS011;63795;55.684;37.864;2022-10-01T15:25:34;55.15;;;34.90;;
75207;SDS011;63795;55.684;37.864;2022-10-01T15:30:35;69.68;;;46.00;;
75207;SDS011;63795;55.684;37.864;2022-10-01T15:35:36;62.65;;;39.75;;
75207;SDS011;63795;55.684;37.864;2022-10-01T15:40:36;62.03;;;38.67;;
75207;SDS011;63795;55.684;37.864;2022-10-01T15:45:39;55.88;;;36.60;;
75207;SDS011;63795;55.684;37.864;2022-10-01T15:50:41;52.80;;;34.33;;
75207;SDS011;63795;55.684;37.864;2022-10-01T15:55:48;56.78;;;37.88;;
75207;SDS011;63795;55.684;37.864;2022-10-01T16:01:13;82.22;;;53.53;;
75207;SDS011;63795;55.684;37.864;2022-10-01T16:06:17;64.80;;;38.22;;
75207;SDS011;63795;55.684;37.864;2022-10-01T16:11:23;56.95;;;34.80;;
75207;SDS011;63795;55.684;37.864;2022-10-01T16:16:27;60.13;;;40.20;;
75207;SDS011;63795;55.684;37.864;2022-10-01T16:21:28;55.47;;;38.60;;
75207;SDS011;63795;55.684;37.864;2022-10-01T16:26:39;86.65;;;57.15;;
75207;SDS011;63795;55.684;37.864;2022-10-01T16:31:42;77.72;;;51.40;;
75207;SDS011;63795;55.684;37.864;2022-10-01T16:36:44;75.75;;;50.47;;
75207;SDS011;63795;55.684;37.864;2022-10-01T16:41:45;74.47;;;41.35;;
75207;SDS011;63795;55.684;37.864;2022-10-01T16:46:47;75.95;;;50.00;;
75207;SDS011;63795;55.684;37.864;2022-10-01T16:51:50;54.42;;;36.35;;
75207;SDS011;63795;55.684;37.864;2022-10-01T16:56:52;52.38;;;35.40;;
75207;SDS011;63795;55.684;37.864;2022-10-01T17:01:54;41.63;;;30.30;;
75207;SDS011;63795;55.684;37.864;2022-10-01T17:06:56;48.45;;;34.25;;
75207;SDS011;63795;55.684;37.864;2022-10-01T17:11:56;45.63;;;31.95;;
75207;SDS011;63795;55.684;37.864;2022-10-01T17:16:57;39.13;;;26.55;;
75207;SDS011;63795;55.684;37.864;2022-10-01T17:21:59;47.30;;;32.58;;
75207;SDS011;63795;55.684;37.864;2022-10-01T17:27:00;56.90;;;36.13;;
75207;SDS011;63795;55.684;37.864;2022-10-01T17:32:01;49.95;;;31.85;;
75207;SDS011;63795;55.684;37.864;2022-10-01T17:37:01;61.70;;;41.22;;
75207;SDS011;63795;55.684;37.864;2022-10-01T17:42:02;48.88;;;32.33;;
75207;SDS011;63795;55.684;37.864;2022-10-01T17:47:03;60.00;;;37.70;;
75207;SDS011;63795;55.684;37.864;2022-10-01T17:52:03;48.20;;;32.35;;
75207;SDS011;63795;55.684;37.864;2022-10-01T17:57:04;46.85;;;30.80;;
75207;SDS011;63795;55.684;37.864;2022-10-01T18:02:05;47.85;;;33.75;;
75207;SDS011;63795;55.684;37.864;2022-10-01T18:07:06;45.53;;;30.48;;
75207;SDS011;63795;55.684;37.864;2022-10-01T18:12:08;48.17;;;33.00;;
75207;SDS011;63795;55.684;37.864;2022-10-01T18:17:09;45.47;;;32.47;;
75207;SDS011;63795;55.684;37.864;2022-10-01T18:22:09;40.85;;;29.73;;
75207;SDS011;63795;55.684;37.864;2022-10-01T18:27:13;42.25;;;30.08;;
75207;SDS011;63795;55.684;37.864;2022-10-01T18:32:17;43.90;;;30.42;;
75207;SDS011;63795;55.684;37.864;2022-10-01T18:37:33;37.25;;;26.23;;
75207;SDS011;63795;55.684;37.864;2022-10-01T18:42:44;42.70;;;30.02;;
